Time;durP1;ratioP1;P1;durP2;ratioP2;P2;SDS_P1;SDS_P2;PMS_P1;PMS_P2;Temp;Humidity;BMP_temperature;BMP_pressure;BME280_temperature;BME280_humidity;BME280_pressure;Samples;Min_cycle;Max_cycle;Signal;HPM_P1;HPM_P2
2022/08/15 00:00:49;;;;;;;9.13;8.43;;;20.50;99.90;;;;;;5097829;28;20552;-48
2022/08/15 00:03:21;;;;;;;9.30;8.50;;;20.50;99.90;;;;;;5097620;28;20756;-50
2022/08/15 00:05:48;;;;;;;8.73;7.93;;;20.50;99.90;;;;;;5097311;28;20728;-49
2022/08/15 00:08:18;;;;;;;9.90;8.97;;;20.50;99.90;;;;;;5096821;28;20499;-46
2022/08/15 00:10:49;;;;;;;8.47;7.77;;;20.50;99.90;;;;;;5097625;28;20468;-46
2022/08/15 00:13:21;;;;;;;9.50;8.80;;;20.50;99.90;;;;;;5097636;28;20905;-51
2022/08/15 00:15:52;;;;;;;9.60;8.80;;;20.50;99.90;;;;;;5096438;28;20467;-49
2022/08/15 00:18:21;;;;;;;9.40;8.60;;;20.60;99.90;;;;;;5097117;28;20787;-49
2022/08/15 00:20:51;;;;;;;10.27;9.43;;;20.60;99.90;;;;;;5097565;28;20460;-47
2022/08/15 00:23:26;;;;;;;9.23;8.47;;;20.50;99.90;;;;;;5097655;28;20461;-49
2022/08/15 00:25:56;;;;;;;8.87;8.17;;;20.40;99.90;;;;;;5096593;28;20486;-51
2022/08/15 00:28:23;;;;;;;9.77;8.87;;;20.30;99.90;;;;;;5096858;28;20522;-49
2022/08/15 00:30:54;;;;;;;8.00;7.40;;;20.20;99.90;;;;;;5096944;28;20464;-53
2022/08/15 00:33:22;;;;;;;8.83;8.13;;;20.20;99.90;;;;;;5097065;28;20468;-49
2022/08/15 00:35:52;;;;;;;9.73;8.93;;;20.10;99.90;;;;;;5096073;28;20909;-53
2022/08/15 00:38:26;;;;;;;8.67;7.97;;;20.00;99.90;;;;;;5097600;28;20833;-49
2022/08/15 00:43:46;;;;;;;9.37;8.47;;;20.00;99.90;;;;;;5097012;28;20525;-48
2022/08/15 00:46:17;;;;;;;9.80;8.87;;;19.90;99.90;;;;;;5096463;28;20456;-49
2022/08/15 00:48:50;;;;;;;9.90;9.00;;;19.90;99.90;;;;;;5097174;28;20522;-49
2022/08/15 00:51:20;;;;;;;9.40;8.30;;;19.80;99.90;;;;;;5097062;28;20901;-47
2022/08/15 00:53:53;;;;;;;9.10;8.40;;;19.80;99.90;;;;;;5096832;28;20476;-52
2022/08/15 00:56:22;;;;;;;9.03;8.33;;;19.80;99.90;;;;;;5096476;28;20548;-48
2022/08/15 00:58:53;;;;;;;9.00;8.20;;;19.90;99.90;;;;;;5097306;28;20539;-52
2022/08/15 01:01:21;;;;;;;9.53;8.83;;;19.90;99.90;;;;;;5096910;28;20467;-49
2022/08/15 01:03:50;;;;;;;8.33;7.73;;;19.90;99.90;;;;;;5096599;28;20464;-47
2022/08/15 01:06:22;;;;;;;10.40;9.50;;;20.10;99.90;;;;;;5096161;28;20543;-52
2022/08/15 01:08:51;;;;;;;8.97;8.23;;;20.10;99.90;;;;;;5095641;28;20484;-48
2022/08/15 01:11:23;;;;;;;8.50;7.80;;;20.00;99.90;;;;;;5096233;28;20525;-55
2022/08/15 01:13:52;;;;;;;8.43;7.73;;;20.00;99.90;;;;;;5096382;28;20457;-52
2022/08/15 01:16:21;;;;;;;8.30;7.60;;;20.10;99.90;;;;;;5095227;28;20940;-50
2022/08/15 01:18:52;;;;;;;7.73;7.13;;;20.20;99.90;;;;;;5096722;28;20822;-52
2022/08/15 01:21:26;;;;;;;8.77;8.07;;;20.20;99.90;;;;;;5100488;28;20836;-46
2022/08/15 01:24:08;;;;;;;8.60;7.80;;;20.20;99.90;;;;;;5100507;28;20456;-51
2022/08/15 01:26:37;;;;;;;8.97;8.07;;;20.30;99.90;;;;;;5100521;28;20499;-50
2022/08/15 01:29:05;;;;;;;8.60;7.90;;;20.30;99.90;;;;;;5100112;28;21283;-52
2022/08/15 01:31:33;;;;;;;8.80;8.00;;;20.30;99.90;;;;;;5099688;28;20485;-46
2022/08/15 01:34:04;;;;;;;8.53;7.93;;;20.30;99.90;;;;;;5100462;28;20558;-47
2022/08/15 01:36:32;;;;;;;9.53;8.70;;;20.30;99.90;;;;;;5100282;28;20824;-51
2022/08/15 01:39:13;;;;;;;9.30;8.50;;;20.30;99.90;;;;;;5100812;28;20455;-47
2022/08/15 01:45:46;;;;;;;8.63;7.93;;;20.20;99.90;;;;;;5092564;28;20423;-50
2022/08/15 01:48:18;;;;;;;9.13;8.23;;;20.30;99.90;;;;;;5100670;28;20544;-48
2022/08/15 01:50:49;;;;;;;10.43;9.57;;;20.30;99.90;;;;;;5100516;28;20502;-51
2022/08/15 01:53:23;;;;;;;8.83;7.93;;;20.20;99.90;;;;;;5100289;28;20464;-49
2022/08/15 01:55:57;;;;;;;8.63;7.93;;;20.10;99.90;;;;;;5099876;28;20463;-50
2022/08/15 01:58:26;;;;;;;9.40;8.50;;;20.20;99.90;;;;;;5100152;28;20435;-49
2022/08/15 02:00:57;;;;;;;9.13;8.33;;;20.20;99.90;;;;;;5099474;28;20547;-48
2022/08/15 02:03:33;;;;;;;8.93;8.23;;;20.20;99.90;;;;;;5099159;28;20953;-51
2022/08/15 02:06:01;;;;;;;8.90;8.23;;;20.20;99.90;;;;;;5100093;28;20876;-46
2022/08/15 02:08:30;;;;;;;8.83;8.13;;;20.10;99.90;;;;;;5100200;28;20524;-47
2022/08/15 02:10:58;;;;;;;7.47;6.73;;;20.10;99.90;;;;;;5099325;28;20460;-48
2022/08/15 02:13:26;;;;;;;8.67;7.97;;;20.10;99.90;;;;;;5099954;28;20456;-52
2022/08/15 02:15:55;;;;;;;9.47;7.80;;;20.10;99.90;;;;;;5099625;28;20472;-51
2022/08/15 02:18:24;;;;;;;8.37;7.67;;;20.10;99.90;;;;;;5099553;28;20514;-49
2022/08/15 02:20:51;;;;;;;8.10;7.40;;;20.10;99.90;;;;;;5099289;28;20460;-48
2022/08/15 02:23:19;;;;;;;7.87;7.10;;;20.20;99.90;;;;;;5099014;28;20460;-50
2022/08/15 02:25:46;;;;;;;8.13;7.43;;;20.20;99.90;;;;;;5099384;28;20460;-48
2022/08/15 02:28:14;;;;;;;6.90;6.40;;;20.20;99.90;;;;;;5099190;28;20573;-48
2022/08/15 02:30:43;;;;;;;8.53;7.73;;;20.30;99.90;;;;;;5098286;28;20889;-48
2022/08/15 02:33:12;;;;;;;7.97;7.27;;;20.30;99.90;;;;;;5098797;28;20457;-46
2022/08/15 02:35:39;;;;;;;8.33;7.37;;;20.30;99.90;;;;;;5099070;28;20465;-46
2022/08/15 02:38:07;;;;;;;9.03;7.00;;;20.30;99.90;;;;;;5099077;28;20463;-49
2022/08/15 02:40:35;;;;;;;6.40;5.90;;;20.30;99.90;;;;;;5098985;28;20876;-50
2022/08/15 02:43:04;;;;;;;6.73;6.23;;;20.40;99.90;;;;;;5098400;28;20746;-50
2022/08/15 02:45:37;;;;;;;7.30;6.70;;;20.30;99.90;;;;;;5098801;28;20435;-48
2022/08/15 02:48:05;;;;;;;8.37;7.00;;;20.30;99.90;;;;;;5099040;28;21012;-52
2022/08/15 02:50:36;;;;;;;6.23;5.73;;;20.40;99.90;;;;;;5098856;28;20438;-52
2022/08/15 02:53:10;;;;;;;6.50;5.90;;;20.40;99.90;;;;;;5098148;28;20468;-52
2022/08/15 02:55:37;;;;;;;10.40;6.10;;;20.50;99.90;;;;;;5098643;28;20717;-48
2022/08/15 02:58:05;;;;;;;10.00;6.47;;;20.50;99.90;;;;;;5099173;28;20869;-50
2022/08/15 03:00:32;;;;;;;6.27;5.70;;;20.60;99.90;;;;;;5098697;28;20879;-50
2022/08/15 03:03:02;;;;;;;6.67;6.07;;;20.60;99.90;;;;;;5097951;28;20483;-52
2022/08/15 03:05:34;;;;;;;5.70;5.20;;;20.70;99.90;;;;;;5098903;28;20893;-48
2022/08/15 03:08:02;;;;;;;6.83;6.13;;;20.70;99.90;;;;;;5098134;28;20467;-48
2022/08/15 03:10:30;;;;;;;6.27;5.77;;;20.70;99.90;;;;;;5099023;28;20460;-48
2022/08/15 03:13:00;;;;;;;7.30;6.70;;;20.70;99.90;;;;;;5098485;28;20533;-47
2022/08/15 03:15:38;;;;;;;7.17;6.57;;;20.70;99.90;;;;;;5097767;28;20466;-52
2022/08/15 03:18:05;;;;;;;7.10;6.50;;;20.60;99.90;;;;;;5098048;28;20469;-49
2022/08/15 03:20:36;;;;;;;6.60;6.10;;;20.60;99.90;;;;;;5098666;28;20430;-48
2022/08/15 03:23:07;;;;;;;7.57;6.87;;;20.60;99.90;;;;;;5097972;28;20521;-54
2022/08/15 03:25:39;;;;;;;6.53;6.00;;;20.60;99.90;;;;;;5097888;28;20560;-49
2022/08/15 03:28:08;;;;;;;6.73;6.07;;;20.60;99.90;;;;;;5098329;28;20496;-48
2022/08/15 03:30:37;;;;;;;7.03;6.43;;;20.50;99.90;;;;;;5096813;28;20517;-50
2022/08/15 03:33:06;;;;;;;6.60;5.90;;;20.50;99.90;;;;;;5096831;28;20461;-53
2022/08/15 03:35:42;;;;;;;7.70;7.00;;;20.50;99.90;;;;;;5097892;28;20559;-53
2022/08/15 03:38:11;;;;;;;6.87;6.37;;;20.50;99.90;;;;;;5097867;28;20959;-48
2022/08/15 03:40:41;;;;;;;6.97;6.37;;;20.40;99.90;;;;;;5097685;28;20496;-50
2022/08/15 03:43:12;;;;;;;8.67;6.40;;;20.40;99.90;;;;;;5096714;28;20464;-48
2022/08/15 03:45:39;;;;;;;6.63;6.03;;;20.40;99.90;;;;;;5094852;28;20819;-49
2022/08/15 03:48:07;;;;;;;6.60;6.00;;;20.30;99.90;;;;;;5097753;28;20484;-49
2022/08/15 03:50:34;;;;;;;6.60;6.00;;;20.40;99.90;;;;;;5097868;28;20495;-51
2022/08/15 03:53:06;;;;;;;7.00;6.30;;;20.40;99.90;;;;;;5097631;28;20484;-49
2022/08/15 03:55:36;;;;;;;6.30;5.70;;;20.50;99.90;;;;;;5096413;28;20543;-48
2022/08/15 03:58:05;;;;;;;6.40;5.80;;;20.50;99.90;;;;;;5097396;28;20431;-50
2022/08/15 04:00:36;;;;;;;6.10;5.50;;;20.50;99.90;;;;;;5097977;28;20467;-47
2022/08/15 04:03:09;;;;;;;6.10;5.60;;;20.50;99.90;;;;;;5097939;28;20460;-50
2022/08/15 04:05:37;;;;;;;5.70;5.20;;;20.50;99.90;;;;;;5096786;28;20889;-54
2022/08/15 04:08:09;;;;;;;7.93;5.43;;;20.60;99.90;;;;;;5097360;28;20459;-50
2022/08/15 04:10:37;;;;;;;11.20;5.70;;;20.60;99.90;;;;;;5097313;28;20464;-52
2022/08/15 04:13:06;;;;;;;5.93;5.40;;;20.60;99.90;;;;;;5097667;28;20477;-53
2022/08/15 04:15:35;;;;;;;7.00;5.37;;;20.70;99.90;;;;;;5096795;28;20464;-50
2022/08/15 04:18:02;;;;;;;5.70;5.23;;;20.70;99.90;;;;;;5096864;28;20456;-46
2022/08/15 04:20:29;;;;;;;5.90;5.40;;;20.70;99.90;;;;;;5097285;28;20774;-49
2022/08/15 04:22:57;;;;;;;7.30;5.10;;;20.80;99.90;;;;;;5097592;28;20453;-53
2022/08/15 04:25:29;;;;;;;5.30;4.80;;;20.80;99.90;;;;;;5096902;28;20457;-53
2022/08/15 04:27:59;;;;;;;5.33;4.83;;;20.80;99.90;;;;;;5095135;28;20462;-47
2022/08/15 04:30:30;;;;;;;5.77;5.27;;;20.80;99.90;;;;;;5086327;28;20516;-49
2022/08/15 04:33:08;;;;;;;8.43;5.70;;;20.80;99.90;;;;;;5093942;28;20525;-50
2022/08/15 04:35:36;;;;;;;6.07;5.43;;;20.80;99.90;;;;;;5095697;28;20496;-49
2022/08/15 04:38:09;;;;;;;5.87;5.37;;;20.80;99.90;;;;;;5095059;28;20473;-52
2022/08/15 04:40:38;;;;;;;6.90;5.73;;;20.90;99.90;;;;;;5096741;28;20464;-50
2022/08/15 04:43:05;;;;;;;5.73;5.17;;;21.00;99.90;;;;;;5096745;28;20431;-50
2022/08/15 04:45:35;;;;;;;6.30;5.70;;;21.00;99.90;;;;;;5094335;28;20556;-51
2022/08/15 04:48:04;;;;;;;5.80;5.30;;;21.00;99.90;;;;;;5094400;28;20484;-49
2022/08/15 04:50:31;;;;;;;6.50;5.90;;;21.00;99.90;;;;;;5096563;28;20813;-49
2022/08/15 04:53:00;;;;;;;5.93;5.33;;;21.00;99.90;;;;;;5097544;28;20539;-47
2022/08/15 04:55:33;;;;;;;6.53;5.70;;;21.00;99.90;;;;;;5099398;28;20483;-46
2022/08/15 04:58:03;;;;;;;6.73;5.53;;;21.00;99.90;;;;;;5100250;28;20466;-47
2022/08/15 05:00:36;;;;;;;5.83;5.33;;;21.10;99.90;;;;;;5099333;28;20746;-48
2022/08/15 05:03:08;;;;;;;8.83;5.47;;;21.20;99.90;;;;;;5098682;28;20963;-49
2022/08/15 05:05:37;;;;;;;6.10;5.50;;;21.20;99.90;;;;;;5098430;28;20460;-50
2022/08/15 05:08:08;;;;;;;7.23;5.73;;;21.30;99.90;;;;;;5097105;28;20488;-53
2022/08/15 05:10:35;;;;;;;5.33;4.77;;;21.30;99.90;;;;;;5100023;28;20427;-50
2022/08/15 05:13:12;;;;;;;7.60;5.20;;;21.40;99.90;;;;;;5099935;28;20992;-46
2022/08/15 05:15:44;;;;;;;7.47;4.90;;;21.40;99.90;;;;;;5100756;28;21032;-54
2022/08/15 05:18:12;;;;;;;5.53;5.03;;;21.40;99.90;;;;;;5100425;28;20551;-53
2022/08/15 05:20:41;;;;;;;7.53;5.13;;;21.50;99.90;;;;;;5100459;28;20948;-51
2022/08/15 05:23:10;;;;;;;5.83;5.23;;;21.50;99.90;;;;;;5100002;28;20567;-49
2022/08/15 05:25:40;;;;;;;9.50;5.87;;;21.60;99.90;;;;;;5099368;28;20460;-55
2022/08/15 05:28:08;;;;;;;6.37;4.03;;;21.60;99.90;;;;;;5099021;28;20550;-56
2022/08/15 05:30:40;;;;;;;5.70;4.97;;;21.70;99.90;;;;;;5100407;28;20558;-56
2022/08/15 05:33:11;;;;;;;6.67;4.53;;;21.80;99.90;;;;;;5099087;28;20774;-53
2022/08/15 05:35:42;;;;;;;4.83;3.97;;;21.90;99.90;;;;;;5099937;28;20885;-53
2022/08/15 05:38:16;;;;;;;7.03;3.90;;;22.00;99.90;;;;;;5100399;28;20545;-51
2022/08/15 05:41:00;;;;;;;4.10;3.80;;;22.00;99.90;;;;;;5080232;28;20467;-51
2022/08/15 05:43:37;;;;;;;3.67;3.37;;;22.10;99.90;;;;;;5079449;28;20464;-49
2022/08/15 05:46:16;;;;;;;4.00;3.60;;;22.20;99.90;;;;;;5090922;28;20914;-53
2022/08/15 05:48:58;;;;;;;4.43;3.90;;;22.30;99.90;;;;;;5100254;28;20537;-54
2022/08/15 05:51:32;;;;;;;4.73;4.23;;;22.30;99.90;;;;;;5079734;28;20462;-55
2022/08/15 05:54:11;;;;;;;5.50;4.50;;;22.40;99.90;;;;;;5079797;28;20471;-53
2022/08/15 05:56:53;;;;;;;6.30;4.10;;;22.40;99.90;;;;;;5093913;28;20550;-54
2022/08/15 05:59:25;;;;;;;7.70;4.07;;;22.40;99.90;;;;;;5099870;28;20455;-50
2022/08/15 06:02:05;;;;;;;5.70;4.23;;;22.50;99.90;;;;;;5078839;28;20538;-51
2022/08/15 06:04:41;;;;;;;4.33;3.93;;;22.60;99.90;;;;;;5079236;28;20447;-52
2022/08/15 06:07:20;;;;;;;4.53;4.13;;;22.50;99.90;;;;;;5093050;28;20464;-53
2022/08/15 06:09:52;;;;;;;4.03;3.73;;;22.60;99.90;;;;;;5099575;28;20520;-47
2022/08/15 06:12:27;;;;;;;4.43;4.00;;;22.70;99.90;;;;;;5078958;28;20457;-53
2022/08/15 06:14:59;;;;;;;4.50;3.73;;;22.70;99.90;;;;;;5080002;28;20461;-48
2022/08/15 06:17:35;;;;;;;4.30;3.77;;;22.80;99.90;;;;;;5092130;28;20495;-50
2022/08/15 06:20:07;;;;;;;4.73;4.30;;;22.90;99.90;;;;;;5099950;28;20513;-54
2022/08/15 06:22:50;;;;;;;7.60;4.13;;;22.90;99.90;;;;;;5099415;28;20513;-48
2022/08/15 06:25:27;;;;;;;4.63;3.77;;;23.00;99.90;;;;;;5097470;28;20554;-52
2022/08/15 06:28:09;;;;;;;4.17;3.77;;;23.00;99.90;;;;;;5097939;28;20460;-48
2022/08/15 06:30:44;;;;;;;6.70;4.73;;;23.00;99.90;;;;;;5098721;28;20875;-51
2022/08/15 06:33:27;;;;;;;4.17;3.83;;;23.00;99.90;;;;;;5098067;28;20456;-52
2022/08/15 06:36:05;;;;;;;6.43;3.70;;;23.00;99.90;;;;;;5096038;28;20488;-52
2022/08/15 06:38:42;;;;;;;4.50;4.10;;;23.00;99.90;;;;;;5097905;28;20460;-53
2022/08/15 06:41:19;;;;;;;4.50;3.80;;;23.10;99.90;;;;;;5097875;28;20782;-50
2022/08/15 06:43:49;;;;;;;10.43;4.10;;;23.10;99.90;;;;;;5098148;28;20442;-50
2022/08/15 06:46:17;;;;;;;5.00;3.70;;;23.10;99.90;;;;;;5098431;28;20527;-52
2022/08/15 06:48:47;;;;;;;3.83;3.53;;;23.10;99.90;;;;;;5097964;28;20489;-48
2022/08/15 06:51:16;;;;;;;6.63;4.20;;;23.20;99.90;;;;;;5099370;28;20514;-47
2022/08/15 06:53:51;;;;;;;5.17;4.53;;;23.20;99.90;;;;;;5097173;28;20465;-47
2022/08/15 06:56:43;;;;;;;8.20;4.60;;;23.20;99.90;;;;;;5097774;28;20456;-49
2022/08/15 06:59:21;;;;;;;5.17;4.23;;;23.20;99.90;;;;;;5096435;28;20427;-51
2022/08/15 07:01:58;;;;;;;6.43;3.93;;;23.30;99.90;;;;;;5097086;28;20722;-50
2022/08/15 07:04:37;;;;;;;4.73;3.50;;;23.40;99.90;;;;;;5097080;28;20829;-49
2022/08/15 07:07:12;;;;;;;4.93;4.47;;;23.60;99.90;;;;;;5097243;28;20468;-48
2022/08/15 07:09:49;;;;;;;6.27;3.83;;;23.80;99.90;;;;;;5096270;28;20936;-53
2022/08/15 07:12:27;;;;;;;4.43;3.93;;;23.90;99.90;;;;;;5098444;28;20483;-51
2022/08/15 07:15:03;;;;;;;4.30;3.90;;;24.00;99.90;;;;;;5098094;28;20785;-53
2022/08/15 07:17:36;;;;;;;5.83;4.33;;;24.00;99.90;;;;;;5098090;28;20512;-50
2022/08/15 07:20:06;;;;;;;5.50;4.13;;;24.20;99.90;;;;;;5097455;28;20457;-51
2022/08/15 07:22:39;;;;;;;8.13;4.77;;;24.40;99.90;;;;;;5097950;28;20556;-51
2022/08/15 07:25:13;;;;;;;5.90;3.73;;;24.40;99.90;;;;;;5097320;28;20471;-51
2022/08/15 07:27:41;;;;;;;5.50;5.00;;;24.50;99.90;;;;;;5097881;28;20749;-50
2022/08/15 07:30:18;;;;;;;5.40;3.73;;;24.50;99.90;;;;;;5094973;28;20979;-49
2022/08/15 07:32:51;;;;;;;4.63;3.77;;;24.50;99.90;;;;;;5095882;28;20441;-51
2022/08/15 07:35:25;;;;;;;4.90;4.03;;;24.30;99.90;;;;;;5097805;28;20628;-52
2022/08/15 07:37:58;;;;;;;6.33;4.57;;;24.30;99.90;;;;;;5097283;28;20507;-51
2022/08/15 07:40:31;;;;;;;8.67;3.80;;;24.20;99.90;;;;;;5096961;28;20498;-48
2022/08/15 07:43:00;;;;;;;6.00;4.10;;;24.20;99.90;;;;;;5097373;28;20456;-50
2022/08/15 07:45:34;;;;;;;4.90;3.63;;;24.20;99.90;;;;;;5097218;28;20481;-50
2022/08/15 07:48:05;;;;;;;5.20;4.00;;;24.10;99.90;;;;;;5097651;28;20464;-50
2022/08/15 07:50:43;;;;;;;5.63;4.00;;;24.00;99.90;;;;;;5097519;28;20768;-52
2022/08/15 07:53:18;;;;;;;4.83;4.33;;;23.80;99.90;;;;;;5098387;28;20476;-50
2022/08/15 07:56:13;;;;;;;4.30;3.90;;;23.80;99.90;;;;;;5097398;28;20530;-52
2022/08/15 07:58:45;;;;;;;4.03;3.63;;;23.60;99.90;;;;;;5097951;28;20521;-48
2022/08/15 08:01:23;;;;;;;4.73;4.20;;;23.60;99.90;;;;;;5096708;28;20941;-47
2022/08/15 08:03:55;;;;;;;4.97;3.80;;;23.50;99.90;;;;;;5097367;28;20533;-50
2022/08/15 08:06:30;;;;;;;9.00;4.57;;;23.60;99.90;;;;;;5096272;28;20708;-51
2022/08/15 08:09:12;;;;;;;5.23;4.27;;;23.60;99.90;;;;;;5097972;28;20499;-49
2022/08/15 08:11:46;;;;;;;3.77;3.40;;;23.60;99.90;;;;;;5096931;28;20460;-49
2022/08/15 08:14:30;;;;;;;4.77;4.37;;;23.70;99.90;;;;;;5077447;28;20487;-48
2022/08/15 08:17:04;;;;;;;4.27;3.87;;;23.70;99.90;;;;;;5078845;28;20497;-51
2022/08/15 08:19:42;;;;;;;4.20;3.80;;;23.90;99.90;;;;;;5076661;28;20490;-48
2022/08/15 08:22:23;;;;;;;5.90;4.83;;;23.90;99.90;;;;;;5082631;28;20468;-53
2022/08/15 08:25:00;;;;;;;4.80;4.30;;;24.00;99.90;;;;;;5095825;28;20457;-53
2022/08/15 08:27:39;;;;;;;8.97;4.37;;;24.00;99.90;;;;;;5096287;28;20461;-53
2022/08/15 08:30:10;;;;;;;4.13;3.83;;;24.10;99.90;;;;;;5096188;28;20536;-53
2022/08/15 08:33:09;;;;;;;5.27;3.83;;;24.30;99.90;;;;;;5096015;28;20435;-51
2022/08/15 08:35:42;;;;;;;8.80;4.90;;;24.30;99.90;;;;;;5096423;28;20477;-55
2022/08/15 08:38:24;;;;;;;7.17;4.30;;;24.30;99.90;;;;;;5095554;28;20529;-52
2022/08/15 08:43:53;;;;;;;4.30;3.90;;;24.40;99.90;;;;;;5096224;28;20451;-56
2022/08/15 08:46:35;;;;;;;6.37;4.63;;;24.50;99.90;;;;;;5097013;28;20477;-57
2022/08/15 08:49:18;;;;;;;4.97;3.60;;;24.70;99.90;;;;;;5096471;28;20461;-56
2022/08/15 08:51:56;;;;;;;6.63;4.10;;;24.90;99.90;;;;;;5096777;28;20486;-56
2022/08/15 08:54:32;;;;;;;7.37;5.00;;;25.10;99.90;;;;;;5077004;28;20440;-51
2022/08/15 08:57:02;;;;;;;7.10;4.63;;;25.10;99.90;;;;;;5077139;28;20571;-51
2022/08/15 08:59:45;;;;;;;8.47;4.93;;;25.00;99.90;;;;;;5089166;28;20555;-51
2022/08/15 09:02:33;;;;;;;4.60;4.20;;;24.90;99.90;;;;;;5096912;28;20464;-54
2022/08/15 09:05:11;;;;;;;4.67;4.27;;;24.80;99.90;;;;;;5097355;28;20464;-55
2022/08/15 09:07:43;;;;;;;6.53;3.87;;;24.60;99.90;;;;;;5096897;28;20434;-51
2022/08/15 09:10:18;;;;;;;4.63;4.10;;;24.50;99.90;;;;;;5092053;28;20524;-53
2022/08/15 09:15:43;;;;;;;4.93;4.53;;;24.80;99.90;;;;;;5092803;28;20463;-54
2022/08/15 09:18:18;;;;;;;6.30;3.97;;;24.90;99.90;;;;;;5093016;28;20497;-49
2022/08/15 09:20:46;;;;;;;4.70;3.80;;;24.70;99.90;;;;;;5092163;28;20480;-56
2022/08/15 09:23:17;;;;;;;4.87;3.53;;;24.90;99.90;;;;;;5095536;28;20529;-50
2022/08/15 09:25:54;;;;;;;4.00;3.60;;;25.00;99.90;;;;;;5092202;28;20444;-51
2022/08/15 09:31:16;;;;;;;3.60;3.30;;;25.40;99.90;;;;;;5093090;28;20491;-54
2022/08/15 09:34:17;;;;;;;3.60;3.30;;;25.40;99.90;;;;;;5091673;28;20548;-54
2022/08/15 09:37:09;;;;;;;6.50;3.53;;;25.30;99.90;;;;;;5092976;28;20476;-52
2022/08/15 09:39:56;;;;;;;4.20;3.90;;;25.10;99.90;;;;;;5094170;28;20551;-55
2022/08/15 09:42:55;;;;;;;5.90;4.33;;;25.20;99.90;;;;;;5096040;28;20471;-55
2022/08/15 09:45:36;;;;;;;5.07;4.37;;;24.90;99.90;;;;;;5100220;28;20463;-50
2022/08/15 09:48:35;;;;;;;4.60;4.20;;;25.00;99.90;;;;;;5100081;28;20467;-55
2022/08/15 09:51:33;;;;;;;4.07;3.67;;;25.30;99.90;;;;;;5078475;28;21020;-51
2022/08/15 09:54:11;;;;;;;5.80;3.40;;;25.60;99.90;;;;;;5090712;28;20482;-54
2022/08/15 09:56:40;;;;;;;5.63;4.27;;;25.50;99.90;;;;;;5099074;28;20466;-53
2022/08/15 09:59:19;;;;;;;3.80;3.40;;;25.80;99.90;;;;;;5081420;28;20440;-50
2022/08/15 10:01:52;;;;;;;4.23;3.93;;;25.90;99.90;;;;;;5097973;28;20854;-54
2022/08/15 10:04:24;;;;;;;4.90;4.27;;;25.80;99.90;;;;;;5097466;28;20463;-53
2022/08/15 10:07:45;;;;;;;3.90;3.50;;;25.70;99.90;;;;;;5098317;28;20551;-56
2022/08/15 10:10:23;;;;;;;9.40;3.73;;;25.30;99.90;;;;;;5097857;28;20831;-56
2022/08/15 10:13:29;;;;;;;4.50;4.07;;;25.60;99.90;;;;;;5099406;28;20518;-52
2022/08/15 10:16:04;;;;;;;8.17;3.90;;;25.70;99.90;;;;;;5098722;28;20537;-52
2022/08/15 10:19:04;;;;;;;5.00;4.10;;;25.90;99.90;;;;;;5099695;28;20466;-50
2022/08/15 10:21:47;;;;;;;4.87;3.80;;;25.90;99.90;;;;;;5098664;28;20510;-55
2022/08/15 10:24:27;;;;;;;6.97;4.10;;;26.30;99.90;;;;;;5098766;28;20514;-55
2022/08/15 10:27:22;;;;;;;4.37;4.03;;;26.60;99.90;;;;;;5099281;28;20517;-56
2022/08/15 10:29:53;;;;;;;4.17;3.87;;;26.80;99.90;;;;;;5095112;28;20484;-54
2022/08/15 10:32:40;;;;;;;5.20;4.33;;;27.00;99.90;;;;;;5096598;28;20452;-54
2022/08/15 10:35:21;;;;;;;4.10;3.70;;;27.20;99.90;;;;;;5088942;28;20526;-50
2022/08/15 10:37:53;;;;;;;4.27;3.87;;;27.30;99.90;;;;;;5096211;28;20474;-53
2022/08/15 10:40:56;;;;;;;5.47;4.27;;;27.50;99.90;;;;;;5097812;28;20551;-53
2022/08/15 10:43:40;;;;;;;3.70;3.40;;;27.60;99.90;;;;;;5032027;28;20766;-48
2022/08/15 10:46:18;;;;;;;4.10;3.60;;;27.10;99.90;;;;;;5029249;28;20454;-51
2022/08/15 10:48:59;;;;;;;4.50;4.10;;;27.00;99.90;;;;;;5071090;28;20456;-49
2022/08/15 10:51:46;;;;;;;4.10;3.67;;;27.40;99.90;;;;;;5094193;28;20484;-53
2022/08/15 10:54:32;;;;;;;5.13;3.70;;;27.40;99.90;;;;;;5096516;28;20581;-54
2022/08/15 10:57:07;;;;;;;6.77;3.67;;;27.50;99.90;;;;;;5087012;28;20472;-50
2022/08/15 10:59:37;;;;;;;4.37;3.97;;;27.50;99.90;;;;;;5095283;28;20430;-57
2022/08/15 11:02:10;;;;;;;4.43;3.63;;;27.50;99.90;;;;;;5091778;28;20514;-54
2022/08/15 11:04:43;;;;;;;4.33;4.03;;;27.50;99.90;;;;;;5094507;28;20468;-52
2022/08/15 11:07:18;;;;;;;4.33;3.80;;;27.30;99.90;;;;;;5093795;28;20534;-52
2022/08/15 11:09:54;;;;;;;6.50;4.43;;;27.30;99.90;;;;;;5094173;28;20468;-53
2022/08/15 11:12:22;;;;;;;6.60;4.80;;;26.80;99.90;;;;;;5093902;28;20460;-50
2022/08/15 11:14:58;;;;;;;5.30;4.80;;;26.60;99.90;;;;;;5095140;28;20526;-54
2022/08/15 11:17:33;;;;;;;5.43;4.33;;;26.80;99.90;;;;;;5094675;28;20498;-49
2022/08/15 11:20:12;;;;;;;5.40;4.90;;;26.80;99.90;;;;;;5079711;28;20552;-51
2022/08/15 11:22:54;;;;;;;5.03;4.57;;;26.70;99.90;;;;;;5088770;28;20464;-51
2022/08/15 11:25:26;;;;;;;5.67;5.00;;;26.50;99.90;;;;;;5097423;28;20461;-53
2022/08/15 11:28:05;;;;;;;5.73;5.20;;;26.20;99.90;;;;;;5095846;28;20473;-53
2022/08/15 11:30:38;;;;;;;5.30;4.80;;;25.90;99.90;;;;;;5097378;28;20531;-55
2022/08/15 11:33:24;;;;;;;7.07;5.40;;;25.50;99.90;;;;;;5097616;28;20475;-52
2022/08/15 11:36:08;;;;;;;6.67;6.07;;;24.90;99.90;;;;;;5097130;28;20451;-54
2022/08/15 11:38:39;;;;;;;6.27;5.67;;;24.60;99.90;;;;;;5087318;28;20548;-53
2022/08/15 11:41:06;;;;;;;6.27;5.20;;;24.80;99.90;;;;;;5079474;28;20458;-55
2022/08/15 11:43:40;;;;;;;9.10;5.63;;;24.90;99.90;;;;;;5088191;28;20816;-52
2022/08/15 11:46:08;;;;;;;6.10;5.40;;;25.10;99.90;;;;;;5096036;28;20471;-54
2022/08/15 11:48:39;;;;;;;6.40;5.80;;;25.20;99.90;;;;;;5085340;28;20479;-56
2022/08/15 11:51:23;;;;;;;5.90;4.70;;;25.40;99.90;;;;;;5096735;28;20578;-48
2022/08/15 11:54:06;;;;;;;6.53;5.40;;;25.50;99.90;;;;;;5102098;28;20725;-54
2022/08/15 11:56:52;;;;;;;6.03;5.40;;;25.30;99.90;;;;;;5095712;28;20522;-53
2022/08/15 11:59:33;;;;;;;7.70;6.07;;;25.10;99.90;;;;;;5092222;28;20843;-53
2022/08/15 12:02:23;;;;;;;7.90;5.53;;;25.10;99.90;;;;;;5095030;28;20449;-52
2022/08/15 12:04:51;;;;;;;10.50;6.10;;;25.00;99.90;;;;;;5094723;28;20504;-54
2022/08/15 12:07:25;;;;;;;6.73;5.73;;;25.00;99.90;;;;;;5096694;28;20488;-53
2022/08/15 12:09:56;;;;;;;5.43;5.03;;;25.00;99.90;;;;;;5096406;28;20459;-54
2022/08/15 12:12:35;;;;;;;9.97;6.00;;;24.80;99.90;;;;;;5096907;28;20456;-56
2022/08/15 12:15:13;;;;;;;7.67;5.43;;;24.80;99.90;;;;;;5097262;28;20944;-54
2022/08/15 12:17:45;;;;;;;8.50;4.87;;;24.60;99.90;;;;;;5095727;28;20769;-50
2022/08/15 12:20:15;;;;;;;6.83;5.63;;;24.40;99.90;;;;;;5097406;28;20736;-53
2022/08/15 12:22:45;;;;;;;6.23;5.37;;;24.60;99.90;;;;;;5095292;28;20463;-53
2022/08/15 12:25:12;;;;;;;7.33;5.77;;;24.70;99.90;;;;;;5095866;28;21040;-54
2022/08/15 12:27:40;;;;;;;7.20;5.93;;;24.80;99.90;;;;;;5092804;28;20533;-52
2022/08/15 12:30:14;;;;;;;7.67;5.97;;;24.80;99.90;;;;;;5094094;28;20555;-54
2022/08/15 12:32:44;;;;;;;8.20;5.20;;;25.00;99.90;;;;;;5093959;28;20483;-54
2022/08/15 12:35:13;;;;;;;7.77;5.50;;;25.10;99.90;;;;;;5095423;28;20460;-56
2022/08/15 12:37:43;;;;;;;6.30;4.90;;;25.10;99.90;;;;;;5094390;28;20456;-55
2022/08/15 12:40:15;;;;;;;5.43;4.93;;;25.30;99.90;;;;;;5095453;28;20460;-55
2022/08/15 12:42:49;;;;;;;5.00;4.57;;;25.20;99.90;;;;;;5095761;28;20547;-54
2022/08/15 12:45:18;;;;;;;5.80;4.37;;;25.20;99.90;;;;;;5096187;28;20460;-48
2022/08/15 12:47:49;;;;;;;5.10;4.60;;;25.20;99.90;;;;;;5094252;28;20713;-52
2022/08/15 12:50:17;;;;;;;4.50;3.80;;;25.20;99.90;;;;;;5094711;28;20452;-55
2022/08/15 12:52:48;;;;;;;5.27;4.77;;;25.20;99.90;;;;;;5094723;28;20431;-53
2022/08/15 12:55:20;;;;;;;8.20;5.10;;;25.40;99.90;;;;;;5076292;28;20457;-51
2022/08/15 12:57:48;;;;;;;5.90;5.30;;;25.50;99.90;;;;;;5076191;28;20457;-57
2022/08/15 13:00:17;;;;;;;5.70;5.17;;;25.70;99.90;;;;;;5092362;28;20955;-54
2022/08/15 13:02:44;;;;;;;8.33;5.83;;;25.70;99.90;;;;;;5095278;28;20449;-54
2022/08/15 13:05:23;;;;;;;5.17;4.73;;;25.60;99.90;;;;;;5094217;28;20955;-55
2022/08/15 13:07:50;;;;;;;6.47;5.87;;;25.50;99.90;;;;;;5093872;28;20763;-57
2022/08/15 13:10:23;;;;;;;6.53;5.83;;;25.50;99.90;;;;;;5096137;28;20507;-55
2022/08/15 13:12:51;;;;;;;5.47;5.07;;;25.20;99.90;;;;;;5091298;28;20500;-55
2022/08/15 13:15:21;;;;;;;8.63;5.83;;;25.20;99.90;;;;;;5096246;28;20495;-57
2022/08/15 13:17:51;;;;;;;5.57;5.07;;;25.10;99.90;;;;;;5097892;28;20537;-55
2022/08/15 13:25:56;;;;;;;5.27;4.77;;;25.40;99.90;;;;;;5099984;28;20448;-56
2022/08/15 13:28:24;;;;;;;5.37;4.87;;;25.40;99.90;;;;;;5099651;28;20465;-50
2022/08/15 13:30:51;;;;;;;6.90;5.20;;;25.40;99.90;;;;;;5100807;28;20492;-53
2022/08/15 13:33:20;;;;;;;5.60;4.90;;;25.50;99.90;;;;;;5100543;28;20491;-54
2022/08/15 13:35:47;;;;;;;7.03;4.80;;;25.40;99.90;;;;;;5099156;28;20971;-56
2022/08/15 13:38:15;;;;;;;5.10;4.67;;;25.40;99.90;;;;;;5099872;28;20544;-50
2022/08/15 13:40:49;;;;;;;5.50;5.10;;;25.50;99.90;;;;;;5099606;28;20830;-54